Terminal Aerodrome Forecast
Issued by NWS Tulsa, OK

Home | Current Version | Previous Version | Text Only | Print | Product List | Glossary On
Versions: 1 2 3 4 5 6 7 8 9 10 11 12 13 14 15 16 17 18 19 20
000
FTUS44 KTSA 011800 AAA
TAFFSM
TAF AMD
KFSM 011809Z 0118/0218 29013G23KT P6SM OVC017
     FM012100 30015G25KT P6SM BKN025
     FM020600 31015KT P6SM BKN050
     FM020900 30010KT P6SM SKC=

USA.gov is the U.S. government's official web portal to all federal, state and local government web resources and services.